Le Sueur, MN

10:00 AM CST on December 18, 2014 (GMT -0600)
Nicollet Meadows | Change Station
CLOSE
Current Station
Personal Weather Station
Location: Saint Peter, MN
Elevation: 915 ft
Nearby Weather Stations

Elev 915 ft 44.31 °N, 93.98 °W | Updated 48 seconds ago

Mostly Cloudy
Mostly Cloudy
25.0 °F
Feels Like 25 °F
N
2.2
Wind Variable Wind from SE
Gusts 3.8 mph

Today
High -- | Low -- °F
--% Chance of Precip.
Yesterday
High -- | Low -- °F
Precip. -- in
7:47 AM 4:37 PM
Waning Crescent, 14% visible
Pressure 30.30 in
Visibility 7.0 miles
Clouds Clear
Windchill 25 °F
Dew Point 20 °F
Humidity 81%
Rainfall 0.00 in
Snow Depth Not available.
UV 1 out of 12
Pollen .10 out of 12
Air Quality Not available.
Flu Activity Not available.
METAR KMKT 181555Z AUTO 17003KT 7SM CLR M09/M12 A3030 RMK AO1

More Conditions Fewer Conditions

Pressure 30.30 in
Visibility 7.0 miles
Clouds Clear
Windchill 25 °F
Dew Point 20 °F
Humidity 81%
Rainfall 0.00 in
Snow Depth Not available.
UV 1 out of 12
Pollen .10 out of 12
Air Quality Not available.
Flu Activity Not available.
METAR KMKT 181555Z AUTO 17003KT 7SM CLR M09/M12 A3030 RMK AO1

More Conditions Fewer Conditions

10-Day Weather Forecast

Almanac

Astronomy

Dec. 18, 2014 Rise Set
Actual Time
Civil Twilight
Nautical Twilight
Astronomical Twilight
Moon
Length of Visible Light
Length of Day
Tomorrow will be .
, % of the Moon is Illuminated

Today's Extremes

State Highs State Lows

Community

WunderPhotos

Upload Photos

1,778,949 photos uploaded!

WunderBlogs® & News

Nearby

Air Quality

  Air Quality AQ Index Pollutant
Not available.

Snow Depth

Station Depth Elevation

Earthquake Activity

City Distance Mag. Time & Date
Minimum magnitude displayed is 2.5.

Coastal Water Temperatures

Place Temperature

Nearby Weather Stations